Time,TemperatureF,DewpointF,PressureIn,WindDirection,WindDirectionDegrees,WindSpeedMPH,WindSpeedGustMPH,Humidity,HourlyPrecipIn,Conditions,Clouds,dailyrainin,SoftwareType,DateUTC
2013-04-20 00:05:00,45.6,10.8,30.49,East,96,0.0,0.0,24,0.00,,,0.00,Wunderground v.1.15,2013-04-20 07:05:00,
2013-04-20 00:10:00,44.8,11.1,30.49,East,94,0.0,0.0,25,0.00,,,0.00,Wunderground v.1.15,2013-04-20 07:10:00,
2013-04-20 00:20:00,47.3,10.3,30.49,SSE,160,0.0,0.0,22,0.00,,,0.00,Wunderground v.1.15,2013-04-20 07:20:00,
2013-04-20 00:25:00,45.2,10.5,30.49,SSE,160,0.0,0.0,24,0.00,,,0.00,Wunderground v.1.15,2013-04-20 07:25:00,
2013-04-20 00:35:00,42.4,9.9,30.49,SSE,161,0.0,0.0,26,0.00,,,0.00,Wunderground v.1.15,2013-04-20 07:35:00,
2013-04-20 00:40:00,42.5,10.8,30.49,SSE,160,0.0,0.0,27,0.00,,,0.00,Wunderground v.1.15,2013-04-20 07:40:00,
2013-04-20 00:50:00,40.8,10.2,30.49,SW,219,0.0,0.0,28,0.00,,,0.00,Wunderground v.1.15,2013-04-20 07:50:00,
2013-04-20 00:55:00,39.7,10.0,30.49,SW,219,0.0,0.0,29,0.00,,,0.00,Wunderground v.1.15,2013-04-20 07:55:00,
2013-04-20 01:05:00,40.8,11.7,30.48,SSW,197,0.0,0.0,30,0.00,,,0.00,Wunderground v.1.15,2013-04-20 08:05:00,
2013-04-20 01:10:00,41.9,11.1,30.48,SE,127,0.0,0.0,28,0.00,,,0.00,Wunderground v.1.15,2013-04-20 08:10:00,
2013-04-20 01:20:00,42.4,10.7,30.48,SE,134,0.0,0.0,27,0.00,,,0.00,Wunderground v.1.15,2013-04-20 08:20:00,
2013-04-20 01:25:00,40.4,10.6,30.48,SE,129,0.0,0.0,29,0.00,,,0.00,Wunderground v.1.15,2013-04-20 08:25:00,
2013-04-20 01:35:00,40.8,11.7,30.48,ESE,111,0.0,0.0,30,0.00,,,0.00,Wunderground v.1.15,2013-04-20 08:35:00,
2013-04-20 01:40:00,41.3,10.6,30.48,ESE,111,0.0,0.0,28,0.00,,,0.00,Wunderground v.1.15,2013-04-20 08:40:00,
2013-04-20 01:50:00,39.4,10.5,30.48,ESE,111,0.0,0.0,30,0.00,,,0.00,Wunderground v.1.15,2013-04-20 08:50:00,
2013-04-20 01:55:00,38.8,10.7,30.48,ESE,111,0.0,0.0,31,0.00,,,0.00,Wunderground v.1.15,2013-04-20 08:55:00,
2013-04-20 02:05:00,38.0,10.0,30.48,ESE,111,0.0,0.0,31,0.00,,,0.00,Wunderground v.1.15,2013-04-20 09:05:00,
2013-04-20 02:10:00,37.2,10.0,30.48,ESE,111,0.0,0.0,32,0.00,,,0.00,Wunderground v.1.15,2013-04-20 09:10:00,
2013-04-20 02:20:00,35.0,9.4,30.47,ESE,110,0.0,0.0,34,0.00,,,0.00,Wunderground v.1.15,2013-04-20 09:20:00,
2013-04-20 02:25:00,34.4,9.5,30.47,ESE,110,0.0,0.0,35,0.00,,,0.00,Wunderground v.1.15,2013-04-20 09:25:00,
2013-04-20 02:35:00,36.6,11.5,30.47,ESE,110,0.0,0.0,35,0.00,,,0.00,Wunderground v.1.15,2013-04-20 09:35:00,
2013-04-20 02:40:00,35.1,8.8,30.48,NW,316,0.0,0.0,33,0.00,,,0.00,Wunderground v.1.15,2013-04-20 09:40:00,
2013-04-20 02:50:00,32.4,8.4,30.48,North,354,0.0,0.0,36,0.00,,,0.00,Wunderground v.1.15,2013-04-20 09:50:00,
2013-04-20 02:55:00,31.4,8.1,30.48,NW,319,0.0,0.0,37,0.00,,,0.00,Wunderground v.1.15,2013-04-20 09:55:00,
2013-04-20 03:05:00,31.0,8.9,30.48,ENE,58,1.0,1.0,39,0.00,,,0.00,Wunderground v.1.15,2013-04-20 10:05:00,
2013-04-20 03:10:00,32.3,8.9,30.48,ENE,58,0.0,0.0,37,0.00,,,0.00,Wunderground v.1.15,2013-04-20 10:10:00,
2013-04-20 03:20:00,34.7,11.6,30.48,NE,56,0.0,0.0,38,0.00,,,0.00,Wunderground v.1.15,2013-04-20 10:20:00,
2013-04-20 03:25:00,36.7,12.2,30.48,NNE,25,0.0,0.0,36,0.00,,,0.00,Wunderground v.1.15,2013-04-20 10:25:00,
2013-04-20 03:35:00,35.1,9.5,30.48,NW,324,0.0,0.0,34,0.00,,,0.00,Wunderground v.1.15,2013-04-20 10:35:00,
2013-04-20 03:40:00,33.6,9.4,30.48,NW,324,0.0,0.0,36,0.00,,,0.00,Wunderground v.1.15,2013-04-20 10:40:00,
2013-04-20 03:50:00,32.0,9.2,30.48,North,356,0.0,1.0,38,0.00,,,0.00,Wunderground v.1.15,2013-04-20 10:50:00,
2013-04-20 03:55:00,32.0,9.8,30.48,NE,56,0.0,1.0,39,0.00,,,0.00,Wunderground v.1.15,2013-04-20 10:55:00,
2013-04-20 04:05:00,32.0,9.2,30.48,NW,314,0.0,2.0,38,0.00,,,0.00,Wunderground v.1.15,2013-04-20 11:05:00,
2013-04-20 04:10:00,31.9,9.7,30.48,NW,318,1.0,1.0,39,0.00,,,0.00,Wunderground v.1.15,2013-04-20 11:10:00,
2013-04-20 04:20:00,31.2,9.1,30.48,NW,309,0.0,1.0,39,0.00,,,0.00,Wunderground v.1.15,2013-04-20 11:20:00,
2013-04-20 04:25:00,30.9,9.4,30.48,NW,323,0.0,1.0,40,0.00,,,0.00,Wunderground v.1.15,2013-04-20 11:25:00,
2013-04-20 04:35:00,31.2,9.6,30.48,ENE,66,0.0,0.0,40,0.00,,,0.00,Wunderground v.1.15,2013-04-20 11:35:00,
2013-04-20 04:40:00,30.9,9.4,30.48,North,5,0.0,0.0,40,0.00,,,0.00,Wunderground v.1.15,2013-04-20 11:40:00,
2013-04-20 04:50:00,30.6,9.1,30.48,SE,129,0.0,0.0,40,0.00,,,0.00,Wunderground v.1.15,2013-04-20 11:50:00,
2013-04-20 04:55:00,30.8,9.8,30.48,SE,129,0.0,0.0,41,0.00,,,0.00,Wunderground v.1.15,2013-04-20 11:55:00,
2013-04-20 05:05:00,31.6,11.1,30.47,SE,129,0.0,0.0,42,0.00,,,0.00,Wunderground v.1.15,2013-04-20 12:05:00,
2013-04-20 05:10:00,32.7,9.3,30.48,SE,129,0.0,0.0,37,0.00,,,0.00,Wunderground v.1.15,2013-04-20 12:10:00,
2013-04-20 05:20:00,31.3,10.3,30.48,NNE,20,0.0,1.0,41,0.00,,,0.00,Wunderground v.1.15,2013-04-20 12:20:00,
2013-04-20 05:25:00,31.8,10.7,30.47,NNE,20,0.0,1.0,41,0.00,,,0.00,Wunderground v.1.15,2013-04-20 12:25:00,
2013-04-20 05:35:00,33.0,11.3,30.48,NNW,343,0.0,0.0,40,0.00,,,0.00,Wunderground v.1.15,2013-04-20 12:35:00,
2013-04-20 05:40:00,31.7,10.1,30.48,NNE,18,0.0,0.0,40,0.00,,,0.00,Wunderground v.1.15,2013-04-20 12:40:00,
2013-04-20 05:50:00,30.1,9.2,30.48,NNW,335,1.0,1.0,41,0.00,,,0.00,Wunderground v.1.15,2013-04-20 12:50:00,
2013-04-20 05:55:00,29.6,8.7,30.48,NW,314,0.0,1.0,41,0.00,,,0.00,Wunderground v.1.15,2013-04-20 12:55:00,
2013-04-20 06:05:00,29.0,8.7,30.48,NW,307,0.0,1.0,42,0.00,,,0.00,Wunderground v.1.15,2013-04-20 13:05:00,
2013-04-20 06:10:00,29.3,9.5,30.48,North,1,0.0,0.0,43,0.00,,,0.00,Wunderground v.1.15,2013-04-20 13:10:00,
2013-04-20 06:20:00,30.0,9.6,30.49,NW,318,1.0,1.0,42,0.00,,,0.00,Wunderground v.1.15,2013-04-20 13:20:00,
2013-04-20 06:25:00,30.5,9.6,30.49,NW,318,0.0,1.0,41,0.00,,,0.00,Wunderground v.1.15,2013-04-20 13:25:00,
2013-04-20 06:35:00,31.5,10.5,30.49,NW,318,1.0,2.0,41,0.00,,,0.00,Wunderground v.1.15,2013-04-20 13:35:00,
2013-04-20 06:40:00,32.5,10.8,30.50,NW,319,1.0,2.0,40,0.00,,,0.00,Wunderground v.1.15,2013-04-20 13:40:00,
2013-04-20 06:50:00,34.4,11.4,30.50,NW,318,0.0,0.0,38,0.00,,,0.00,Wunderground v.1.15,2013-04-20 13:50:00,
2013-04-20 06:55:00,35.9,12.1,30.51,NW,314,0.0,0.0,37,0.00,,,0.00,Wunderground v.1.15,2013-04-20 13:55:00,
2013-04-20 07:05:00,38.6,12.6,30.51,NW,322,0.0,0.0,34,0.00,,,0.00,Wunderground v.1.15,2013-04-20 14:05:00,
2013-04-20 07:10:00,39.2,12.5,30.52,WNW,295,0.0,0.0,33,0.00,,,0.00,Wunderground v.1.15,2013-04-20 14:10:00,
2013-04-20 07:20:00,40.9,13.3,30.52,NW,311,1.0,1.0,32,0.00,,,0.00,Wunderground v.1.15,2013-04-20 14:20:00,
2013-04-20 07:25:00,42.2,14.4,30.52,NW,312,0.0,1.0,32,0.00,,,0.00,Wunderground v.1.15,2013-04-20 14:25:00,
2013-04-20 07:35:00,44.9,14.5,30.52,NW,311,1.0,1.0,29,0.00,,,0.00,Wunderground v.1.15,2013-04-20 14:35:00,
2013-04-20 07:40:00,45.9,15.4,30.52,WNW,297,0.0,0.0,29,0.00,,,0.00,Wunderground v.1.15,2013-04-20 14:40:00,
2013-04-20 07:50:00,48.2,16.6,30.52,WNW,295,0.0,0.0,28,0.00,,,0.00,Wunderground v.1.15,2013-04-20 14:50:00,
2013-04-20 07:55:00,49.5,15.1,30.52,NW,307,0.0,0.0,25,0.00,,,0.00,Wunderground v.1.15,2013-04-20 14:55:00,
2013-04-20 08:05:00,52.1,15.4,30.52,NW,309,1.0,1.0,23,0.00,,,0.00,Wunderground v.1.15,2013-04-20 15:05:00,
2013-04-20 08:10:00,52.9,14.0,30.52,WNW,292,2.0,2.0,21,0.00,,,0.00,Wunderground v.1.15,2013-04-20 15:10:00,
2013-04-20 08:20:00,53.9,13.7,30.52,NE,56,2.0,5.0,20,0.00,,,0.00,Wunderground v.1.15,2013-04-20 15:20:00,
2013-04-20 08:25:00,54.3,14.0,30.51,NNW,336,4.0,5.0,20,0.00,,,0.00,Wunderground v.1.15,2013-04-20 15:25:00,
2013-04-20 08:35:00,55.4,13.8,30.51,ENE,65,4.0,5.0,19,0.00,,,0.00,Wunderground v.1.15,2013-04-20 15:35:00,
2013-04-20 08:40:00,56.3,13.3,30.50,NE,48,5.0,5.0,18,0.00,,,0.00,Wunderground v.1.15,2013-04-20 15:40:00,
2013-04-20 08:50:00,57.5,13.0,30.50,NNE,12,5.0,6.0,17,0.00,,,0.00,Wunderground v.1.15,2013-04-20 15:50:00,
2013-04-20 08:55:00,58.0,13.4,30.50,NNW,339,5.0,6.0,17,0.00,,,0.00,Wunderground v.1.15,2013-04-20 15:55:00,
2013-04-20 09:05:00,58.6,13.9,30.50,North,8,4.0,5.0,17,0.00,,,0.00,Wunderground v.1.15,2013-04-20 16:05:00,
2013-04-20 09:10:00,59.3,14.4,30.50,NE,41,4.0,4.0,17,0.00,,,0.00,Wunderground v.1.15,2013-04-20 16:10:00,
2013-04-20 09:20:00,59.9,13.5,30.49,North,8,5.0,6.0,16,0.00,,,0.00,Wunderground v.1.15,2013-04-20 16:20:00,
2013-04-20 09:25:00,60.3,13.9,30.49,NNE,31,6.0,6.0,16,0.00,,,0.00,Wunderground v.1.15,2013-04-20 16:25:00,
2013-04-20 09:35:00,61.1,15.9,30.49,NNE,26,6.0,6.0,17,0.00,,,0.00,Wunderground v.1.15,2013-04-20 16:35:00,
2013-04-20 09:40:00,61.2,16.0,30.50,NNE,26,6.0,10.0,17,0.00,,,0.00,Wunderground v.1.15,2013-04-20 16:40:00,
2013-04-20 09:50:00,61.6,17.6,30.49,East,81,6.0,6.0,18,0.00,,,0.00,Wunderground v.1.15,2013-04-20 16:50:00,
2013-04-20 09:55:00,61.7,17.7,30.49,NE,54,6.0,6.0,18,0.00,,,0.00,Wunderground v.1.15,2013-04-20 16:55:00,
2013-04-20 10:00:00,62.5,18.4,30.49,NNE,25,5.0,11.0,18,0.00,,,0.00,Wunderground v.1.15,2013-04-20 17:00:00,
2013-04-20 10:10:00,62.3,18.2,30.49,NNE,23,7.0,11.0,18,0.00,,,0.00,Wunderground v.1.15,2013-04-20 17:10:00,
2013-04-20 10:20:00,62.7,19.8,30.48,NNE,27,6.0,6.0,19,0.00,,,0.00,Wunderground v.1.15,2013-04-20 17:20:00,
2013-04-20 10:25:00,62.5,18.4,30.48,ENE,62,7.0,7.0,18,0.00,,,0.00,Wunderground v.1.15,2013-04-20 17:25:00,
2013-04-20 10:35:00,63.2,18.9,30.48,NNE,16,5.0,6.0,18,0.00,,,0.00,Wunderground v.1.15,2013-04-20 17:35:00,
2013-04-20 10:40:00,63.3,19.0,30.48,NE,44,5.0,5.0,18,0.00,,,0.00,Wunderground v.1.15,2013-04-20 17:40:00,
2013-04-20 10:50:00,64.5,18.7,30.47,WNW,297,5.0,5.0,17,0.00,,,0.00,Wunderground v.1.15,2013-04-20 17:50:00,
2013-04-20 10:55:00,64.8,20.2,30.47,NNW,346,6.0,6.0,18,0.00,,,0.00,Wunderground v.1.15,2013-04-20 17:55:00,
2013-04-20 11:05:00,64.9,20.3,30.46,NNE,18,6.0,8.0,18,0.00,,,0.00,Wunderground v.1.15,2013-04-20 18:05:00,
2013-04-20 11:10:00,65.8,18.3,30.47,ESE,103,5.0,5.0,16,0.00,,,0.00,Wunderground v.1.15,2013-04-20 18:10:00,
2013-04-20 11:20:00,65.4,19.4,30.45,North,8,4.0,6.0,17,0.00,,,0.00,Wunderground v.1.15,2013-04-20 18:20:00,
2013-04-20 11:25:00,66.9,19.2,30.46,NNW,330,6.0,11.0,16,0.00,,,0.00,Wunderground v.1.15,2013-04-20 18:25:00,
2013-04-20 11:35:00,67.3,18.0,30.45,NNW,345,6.0,8.0,15,0.00,,,0.00,Wunderground v.1.15,2013-04-20 18:35:00,
2013-04-20 11:40:00,67.6,16.6,30.45,West,280,7.0,7.0,14,0.00,,,0.00,Wunderground v.1.15,2013-04-20 18:40:00,
2013-04-20 11:50:00,68.5,19.0,30.44,WNW,285,6.0,9.0,15,0.00,,,0.00,Wunderground v.1.15,2013-04-20 18:50:00,
2013-04-20 11:55:00,68.0,18.6,30.44,WNW,298,8.0,11.0,15,0.00,,,0.00,Wunderground v.1.15,2013-04-20 18:55:00,
2013-04-20 12:05:00,67.9,18.5,30.44,WNW,290,8.0,12.0,15,0.00,,,0.00,Wunderground v.1.15,2013-04-20 19:05:00,
2013-04-20 12:10:00,68.5,19.0,30.44,NW,315,8.0,12.0,15,0.00,,,0.00,Wunderground v.1.15,2013-04-20 19:10:00,
2013-04-20 12:20:00,68.9,17.7,30.43,West,275,9.0,9.0,14,0.00,,,0.00,Wunderground v.1.15,2013-04-20 19:20:00,
2013-04-20 12:25:00,68.6,13.9,30.43,NNE,18,8.0,9.0,12,0.00,,,0.00,Wunderground v.1.15,2013-04-20 19:25:00,
2013-04-20 12:35:00,69.0,17.8,30.42,West,260,8.0,8.0,14,0.00,,,0.00,Wunderground v.1.15,2013-04-20 19:35:00,
2013-04-20 12:40:00,69.1,16.1,30.43,NW,319,8.0,9.0,13,0.00,,,0.00,Wunderground v.1.15,2013-04-20 19:40:00,
2013-04-20 12:50:00,68.3,15.5,30.43,WNW,297,10.0,10.0,13,0.00,,,0.00,Wunderground v.1.15,2013-04-20 19:50:00,
2013-04-20 12:55:00,68.6,13.9,30.43,NNW,330,9.0,10.0,12,0.00,,,0.00,Wunderground v.1.15,2013-04-20 19:55:00,
2013-04-20 13:05:00,68.6,13.9,30.43,North,359,7.0,11.0,12,0.00,,,0.00,Wunderground v.1.15,2013-04-20 20:05:00,
2013-04-20 13:10:00,69.3,12.5,30.43,NW,318,7.0,9.0,11,0.00,,,0.00,Wunderground v.1.15,2013-04-20 20:10:00,
2013-04-20 13:20:00,69.2,14.4,30.43,WNW,302,9.0,11.0,12,0.00,,,0.00,Wunderground v.1.15,2013-04-20 20:20:00,
2013-04-20 13:25:00,69.0,12.2,30.43,NW,323,9.0,11.0,11,0.00,,,0.00,Wunderground v.1.15,2013-04-20 20:25:00,
2013-04-20 13:35:00,69.7,12.8,30.43,NW,311,7.0,7.0,11,0.00,,,0.00,Wunderground v.1.15,2013-04-20 20:35:00,
2013-04-20 13:40:00,69.6,10.5,30.43,NW,307,6.0,6.0,10,0.00,,,0.00,Wunderground v.1.15,2013-04-20 20:40:00,
2013-04-20 13:50:00,70.1,10.9,30.42,WNW,287,7.0,10.0,10,0.00,,,0.00,Wunderground v.1.15,2013-04-20 20:50:00,
2013-04-20 13:55:00,69.6,8.2,30.42,West,262,7.0,10.0,9,0.00,,,0.00,Wunderground v.1.15,2013-04-20 20:55:00,
2013-04-20 14:05:00,70.3,11.1,30.42,NW,305,7.0,9.0,10,0.00,,,0.00,Wunderground v.1.15,2013-04-20 21:05:00,
2013-04-20 14:10:00,70.7,11.4,30.42,North,5,8.0,8.0,10,0.00,,,0.00,Wunderground v.1.15,2013-04-20 21:10:00,
2013-04-20 14:20:00,70.4,11.2,30.41,NW,322,7.0,15.0,10,0.00,,,0.00,Wunderground v.1.15,2013-04-20 21:20:00,
2013-04-20 14:25:00,70.5,8.9,30.42,West,278,10.0,15.0,9,0.00,,,0.00,Wunderground v.1.15,2013-04-20 21:25:00,
2013-04-20 14:35:00,70.6,11.3,30.41,WNW,297,7.0,10.0,10,0.00,,,0.00,Wunderground v.1.15,2013-04-20 21:35:00,
2013-04-20 14:40:00,71.0,9.3,30.41,NW,326,7.0,13.0,9,0.00,,,0.00,Wunderground v.1.15,2013-04-20 21:40:00,
2013-04-20 14:50:00,70.5,8.9,30.41,WNW,298,8.0,8.0,9,0.00,,,0.00,Wunderground v.1.15,2013-04-20 21:50:00,
2013-04-20 14:55:00,70.1,6.0,30.40,WNW,291,6.0,8.0,8,0.00,,,0.00,Wunderground v.1.15,2013-04-20 21:55:00,
2013-04-20 15:05:00,70.5,8.9,30.40,WNW,302,9.0,10.0,9,0.00,,,0.00,Wunderground v.1.15,2013-04-20 22:05:00,
2013-04-20 15:10:00,70.9,6.6,30.40,North,352,10.0,10.0,8,0.00,,,0.00,Wunderground v.1.15,2013-04-20 22:10:00,
2013-04-20 15:20:00,71.6,7.1,30.40,West,280,7.0,10.0,8,0.00,,,0.00,Wunderground v.1.15,2013-04-20 22:20:00,
2013-04-20 15:25:00,71.3,6.9,30.40,NW,309,7.0,10.0,8,0.00,,,0.00,Wunderground v.1.15,2013-04-20 22:25:00,
2013-04-20 15:35:00,70.2,6.0,30.40,NW,319,8.0,9.0,8,0.00,,,0.00,Wunderground v.1.15,2013-04-20 22:35:00,
2013-04-20 15:40:00,71.2,6.8,30.39,West,280,8.0,8.0,8,0.00,,,0.00,Wunderground v.1.15,2013-04-20 22:40:00,
2013-04-20 15:50:00,70.9,6.6,30.40,WNW,294,7.0,7.0,8,0.00,,,0.00,Wunderground v.1.15,2013-04-20 22:50:00,
2013-04-20 15:55:00,71.1,3.8,30.39,West,269,7.0,7.0,7,0.00,,,0.00,Wunderground v.1.15,2013-04-20 22:55:00,
2013-04-20 16:05:00,70.6,6.3,30.39,NW,309,7.0,10.0,8,0.00,,,0.00,Wunderground v.1.15,2013-04-20 23:05:00,
2013-04-20 16:10:00,70.7,6.4,30.39,WNW,293,7.0,7.0,8,0.00,,,0.00,Wunderground v.1.15,2013-04-20 23:10:00,
2013-04-20 16:20:00,71.1,6.7,30.39,WNW,290,7.0,8.0,8,0.00,,,0.00,Wunderground v.1.15,2013-04-20 23:20:00,
2013-04-20 16:25:00,71.3,3.9,30.39,WNW,302,8.0,8.0,7,0.00,,,0.00,Wunderground v.1.15,2013-04-20 23:25:00,
2013-04-20 16:35:00,70.8,6.5,30.39,West,279,8.0,10.0,8,0.00,,,0.00,Wunderground v.1.15,2013-04-20 23:35:00,
2013-04-20 16:40:00,70.7,6.4,30.39,SSE,153,5.0,5.0,8,0.00,,,0.00,Wunderground v.1.15,2013-04-20 23:40:00,
2013-04-20 16:50:00,71.5,7.0,30.39,NNW,330,2.0,12.0,8,0.00,,,0.00,Wunderground v.1.15,2013-04-20 23:50:00,
2013-04-20 16:55:00,70.8,6.5,30.39,WNW,300,5.0,12.0,8,0.00,,,0.00,Wunderground v.1.15,2013-04-20 23:55:00,
2013-04-20 17:05:00,70.6,6.3,30.39,WNW,283,7.0,8.0,8,0.00,,,0.00,Wunderground v.1.15,2013-04-21 00:05:00,
2013-04-20 17:10:00,70.2,6.0,30.39,NW,304,8.0,8.0,8,0.00,,,0.00,Wunderground v.1.15,2013-04-21 00:10:00,
2013-04-20 17:20:00,70.3,6.1,30.39,NW,305,6.0,9.0,8,0.00,,,0.00,Wunderground v.1.15,2013-04-21 00:20:00,
2013-04-20 17:25:00,69.9,5.8,30.39,WNW,295,6.0,9.0,8,0.00,,,0.00,Wunderground v.1.15,2013-04-21 00:25:00,
2013-04-20 17:35:00,70.2,6.0,30.39,NW,324,5.0,10.0,8,0.00,,,0.00,Wunderground v.1.15,2013-04-21 00:35:00,
2013-04-20 17:40:00,69.9,5.8,30.39,WNW,298,6.0,6.0,8,0.00,,,0.00,Wunderground v.1.15,2013-04-21 00:40:00,
2013-04-20 17:50:00,70.1,8.6,30.39,NNW,338,5.0,5.0,9,0.00,,,0.00,Wunderground v.1.15,2013-04-21 00:50:00,
2013-04-20 17:55:00,69.7,8.3,30.39,NNW,345,6.0,10.0,9,0.00,,,0.00,Wunderground v.1.15,2013-04-21 00:55:00,
2013-04-20 18:05:00,69.1,7.8,30.39,NNW,342,6.0,7.0,9,0.00,,,0.00,Wunderground v.1.15,2013-04-21 01:05:00,
2013-04-20 18:10:00,69.0,7.7,30.39,NW,317,5.0,11.0,9,0.00,,,0.00,Wunderground v.1.15,2013-04-21 01:10:00,
2013-04-20 18:20:00,68.1,7.1,30.40,NW,321,7.0,7.0,9,0.00,,,0.00,Wunderground v.1.15,2013-04-21 01:20:00,
2013-04-20 18:25:00,67.6,6.7,30.40,NW,316,7.0,7.0,9,0.00,,,0.00,Wunderground v.1.15,2013-04-21 01:25:00,
2013-04-20 18:35:00,66.7,8.3,30.40,NW,321,6.0,9.0,10,0.00,,,0.00,Wunderground v.1.15,2013-04-21 01:35:00,
2013-04-20 18:40:00,66.2,7.9,30.40,NW,312,5.0,6.0,10,0.00,,,0.00,Wunderground v.1.15,2013-04-21 01:40:00,
2013-04-20 18:50:00,65.2,9.3,30.41,NNW,339,5.0,5.0,11,0.00,,,0.00,Wunderground v.1.15,2013-04-21 01:50:00,
2013-04-20 18:55:00,64.5,8.7,30.41,NNE,19,4.0,5.0,11,0.00,,,0.00,Wunderground v.1.15,2013-04-21 01:55:00,
2013-04-20 19:05:00,63.2,7.7,30.42,North,11,3.0,3.0,11,0.00,,,0.00,Wunderground v.1.15,2013-04-21 02:05:00,
2013-04-20 19:10:00,62.2,8.9,30.42,NNW,343,2.0,5.0,12,0.00,,,0.00,Wunderground v.1.15,2013-04-21 02:10:00,
2013-04-20 19:20:00,61.0,7.9,30.42,NE,39,3.0,3.0,12,0.00,,,0.00,Wunderground v.1.15,2013-04-21 02:20:00,
2013-04-20 19:25:00,60.5,9.3,30.43,North,360,2.0,3.0,13,0.00,,,0.00,Wunderground v.1.15,2013-04-21 02:25:00,
2013-04-20 19:35:00,59.7,8.7,30.43,NW,323,3.0,4.0,13,0.00,,,0.00,Wunderground v.1.15,2013-04-21 02:35:00,
2013-04-20 19:40:00,59.3,8.4,30.43,NW,309,3.0,6.0,13,0.00,,,0.00,Wunderground v.1.15,2013-04-21 02:40:00,
2013-04-20 19:50:00,59.1,9.9,30.44,NNE,15,4.0,4.0,14,0.00,,,0.00,Wunderground v.1.15,2013-04-21 02:50:00,
2013-04-20 19:55:00,58.6,9.5,30.44,NNE,23,3.0,4.0,14,0.00,,,0.00,Wunderground v.1.15,2013-04-21 02:55:00,
2013-04-20 20:05:00,57.4,10.0,30.45,NE,41,2.0,2.0,15,0.00,,,0.00,Wunderground v.1.15,2013-04-21 03:05:00,
2013-04-20 20:10:00,57.0,11.2,30.45,North,357,2.0,2.0,16,0.00,,,0.00,Wunderground v.1.15,2013-04-21 03:10:00,
2013-04-20 20:20:00,56.2,13.2,30.46,NE,39,2.0,2.0,18,0.00,,,0.00,Wunderground v.1.15,2013-04-21 03:20:00,
2013-04-20 20:25:00,55.6,13.9,30.46,NE,35,2.0,4.0,19,0.00,,,0.00,Wunderground v.1.15,2013-04-21 03:25:00,
2013-04-20 20:35:00,55.2,14.8,30.47,NE,39,3.0,4.0,20,0.00,,,0.00,Wunderground v.1.15,2013-04-21 03:35:00,
2013-04-20 20:40:00,54.8,14.4,30.48,ENE,65,2.0,2.0,20,0.00,,,0.00,Wunderground v.1.15,2013-04-21 03:40:00,
2013-04-20 20:50:00,54.5,15.3,30.48,NE,35,2.0,3.0,21,0.00,,,0.00,Wunderground v.1.15,2013-04-21 03:50:00,
2013-04-20 20:55:00,54.2,15.1,30.48,ENE,70,2.0,3.0,21,0.00,,,0.00,Wunderground v.1.15,2013-04-21 03:55:00,
2013-04-20 21:05:00,53.2,15.3,30.49,NE,52,1.0,2.0,22,0.00,,,0.00,Wunderground v.1.15,2013-04-21 04:05:00,
2013-04-20 21:10:00,53.3,15.4,30.49,NE,51,2.0,2.0,22,0.00,,,0.00,Wunderground v.1.15,2013-04-21 04:10:00,
2013-04-20 21:20:00,53.7,15.7,30.49,NE,53,2.0,2.0,22,0.00,,,0.00,Wunderground v.1.15,2013-04-21 04:20:00,
2013-04-20 21:25:00,53.7,15.7,30.49,NNE,27,2.0,4.0,22,0.00,,,0.00,Wunderground v.1.15,2013-04-21 04:25:00,
2013-04-20 21:35:00,53.6,15.6,30.49,ENE,65,2.0,2.0,22,0.00,,,0.00,Wunderground v.1.15,2013-04-21 04:35:00,
2013-04-20 21:40:00,53.4,15.4,30.49,NE,46,2.0,2.0,22,0.00,,,0.00,Wunderground v.1.15,2013-04-21 04:40:00,
2013-04-20 21:45:00,52.9,16.1,30.50,NE,39,2.0,2.0,23,0.00,,,0.00,Wunderground v.1.15,2013-04-21 04:45:00,
2013-04-20 21:50:00,52.5,15.7,30.50,ENE,64,2.0,2.0,23,0.00,,,0.00,Wunderground v.1.15,2013-04-21 04:50:00,
2013-04-20 21:55:00,52.1,15.4,30.50,ENE,67,1.0,2.0,23,0.00,,,0.00,Wunderground v.1.15,2013-04-21 04:55:00,
2013-04-20 22:05:00,51.7,16.0,30.50,ENE,74,1.0,2.0,24,0.00,,,0.00,Wunderground v.1.15,2013-04-21 05:05:00,
2013-04-20 22:10:00,51.7,16.0,30.50,ENE,77,1.0,1.0,24,0.00,,,0.00,Wunderground v.1.15,2013-04-21 05:10:00,
2013-04-20 22:20:00,50.7,16.1,30.51,ENE,76,0.0,0.0,25,0.00,,,0.00,Wunderground v.1.15,2013-04-21 05:20:00,
2013-04-20 22:25:00,50.3,16.7,30.51,ENE,75,0.0,0.0,26,0.00,,,0.00,Wunderground v.1.15,2013-04-21 05:25:00,
2013-04-20 22:35:00,50.1,16.5,30.51,ENE,67,0.0,0.0,26,0.00,,,0.00,Wunderground v.1.15,2013-04-21 05:35:00,
2013-04-20 22:40:00,49.9,16.3,30.51,ENE,66,0.0,0.0,26,0.00,,,0.00,Wunderground v.1.15,2013-04-21 05:40:00,
2013-04-20 22:50:00,49.0,16.4,30.51,ENE,67,0.0,0.0,27,0.00,,,0.00,Wunderground v.1.15,2013-04-21 05:50:00,
2013-04-20 22:55:00,48.4,15.0,30.51,SE,140,0.0,0.0,26,0.00,,,0.00,Wunderground v.1.15,2013-04-21 05:55:00,
2013-04-20 23:05:00,45.0,14.6,30.51,ESE,106,0.0,0.0,29,0.00,,,0.00,Wunderground v.1.15,2013-04-21 06:05:00,
2013-04-20 23:10:00,45.9,16.2,30.51,ESE,106,0.0,0.0,30,0.00,,,0.00,Wunderground v.1.15,2013-04-21 06:10:00,
2013-04-20 23:20:00,47.8,17.0,30.51,ESE,103,0.0,0.0,29,0.00,,,0.00,Wunderground v.1.15,2013-04-21 06:20:00,
2013-04-20 23:25:00,48.6,16.9,30.51,NNE,25,0.0,0.0,28,0.00,,,0.00,Wunderground v.1.15,2013-04-21 06:25:00,
2013-04-20 23:35:00,47.9,16.3,30.51,NNE,15,1.0,2.0,28,0.00,,,0.00,Wunderground v.1.15,2013-04-21 06:35:00,
2013-04-20 23:40:00,47.6,16.1,30.51,NNE,16,2.0,2.0,28,0.00,,,0.00,Wunderground v.1.15,2013-04-21 06:40:00,
2013-04-20 23:50:00,46.6,16.0,30.52,SSE,149,0.0,0.0,29,0.00,,,0.00,Wunderground v.1.15,2013-04-21 06:50:00,
2013-04-20 23:55:00,46.3,16.5,30.52,SSE,149,0.0,0.0,30,0.00,,,0.00,Wunderground v.1.15,2013-04-21 06:55:00,